createdAt,value
2018-07-17T00:02:58.969Z,18.55
2018-07-17T00:06:03.165Z,18.54
2018-07-17T00:09:08.820Z,18.49
2018-07-17T00:12:13.118Z,18.44
2018-07-17T00:15:17.328Z,18.41
2018-07-17T00:18:21.521Z,18.36
2018-07-17T00:21:25.748Z,18.33
2018-07-17T00:24:29.969Z,18.30
2018-07-17T00:27:34.189Z,18.29
2018-07-17T00:30:38.408Z,18.26
2018-07-17T00:33:42.657Z,18.26
2018-07-17T00:36:46.864Z,18.23
2018-07-17T00:39:51.068Z,18.20
2018-07-17T00:42:55.301Z,18.18
2018-07-17T00:45:59.513Z,18.16
2018-07-17T00:49:03.754Z,18.16
2018-07-17T00:52:08.114Z,18.13
2018-07-17T00:55:12.332Z,18.09
2018-07-17T00:58:16.562Z,18.03
2018-07-17T01:01:25.900Z,18.00
2018-07-17T01:04:35.336Z,17.96
2018-07-17T01:07:44.763Z,17.95
2018-07-17T01:10:54.356Z,17.96
2018-07-17T01:14:06.373Z,17.93
2018-07-17T01:17:10.724Z,17.89
2018-07-17T01:20:14.920Z,17.85
2018-07-17T01:23:19.119Z,17.82
2018-07-17T01:26:23.347Z,17.78
2018-07-17T01:29:27.561Z,17.74
2018-07-17T01:32:31.804Z,17.70
2018-07-17T01:35:36.001Z,17.66
2018-07-17T01:38:40.201Z,17.61
2018-07-17T01:41:44.485Z,17.57
2018-07-17T01:44:48.690Z,17.54
2018-07-17T01:47:52.948Z,17.49
2018-07-17T01:50:57.133Z,17.47
2018-07-17T01:54:01.354Z,17.43
2018-07-17T01:57:05.574Z,17.38
2018-07-17T02:00:09.794Z,17.33
2018-07-17T02:03:14.001Z,17.28
2018-07-17T02:06:18.241Z,17.26
2018-07-17T02:09:22.458Z,17.23
2018-07-17T02:12:26.683Z,17.20
2018-07-17T02:15:30.898Z,17.18
2018-07-17T02:18:35.108Z,17.14
2018-07-17T02:21:39.366Z,17.08
2018-07-17T02:24:43.580Z,17.03
2018-07-17T02:27:47.796Z,16.96
2018-07-17T02:30:52.011Z,16.92
2018-07-17T02:33:56.226Z,16.85
2018-07-17T02:37:00.436Z,16.77
2018-07-17T02:40:04.829Z,16.74
2018-07-17T02:43:09.037Z,16.69
2018-07-17T02:46:13.232Z,16.67
2018-07-17T02:49:17.457Z,16.67
2018-07-17T02:52:21.647Z,16.66
2018-07-17T02:55:25.876Z,16.62
2018-07-17T02:58:30.085Z,16.53
2018-07-17T03:01:34.302Z,16.47
2018-07-17T03:04:38.500Z,16.43
2018-07-17T03:07:42.754Z,16.42
2018-07-17T03:10:46.963Z,16.40
2018-07-17T03:13:51.161Z,16.37
2018-07-17T03:16:55.376Z,16.35
2018-07-17T03:19:59.589Z,16.34
2018-07-17T03:23:03.784Z,16.33
2018-07-17T03:26:07.989Z,16.31
2018-07-17T03:29:12.214Z,16.28
2018-07-17T03:32:16.426Z,16.26
2018-07-17T03:35:20.638Z,16.25
2018-07-17T03:38:24.867Z,16.22
2018-07-17T03:41:29.081Z,16.19
2018-07-17T03:44:33.340Z,16.19
2018-07-17T03:47:37.528Z,16.15
2018-07-17T03:50:41.737Z,16.06
2018-07-17T03:53:45.949Z,16.02
2018-07-17T03:56:50.153Z,16.03
2018-07-17T03:59:54.367Z,16.00
2018-07-17T04:02:58.609Z,15.97
2018-07-17T04:06:02.805Z,16.00
2018-07-17T04:09:08.181Z,16.04
2018-07-17T04:12:12.417Z,16.11
2018-07-17T04:15:16.617Z,16.22
2018-07-17T04:18:20.816Z,16.27
2018-07-17T04:21:25.026Z,16.33
2018-07-17T04:24:29.233Z,16.36
2018-07-17T04:27:33.448Z,16.42
2018-07-17T04:30:37.796Z,16.54
2018-07-17T04:33:42.097Z,16.59
2018-07-17T04:36:46.324Z,16.63
2018-07-17T04:39:50.537Z,16.65
2018-07-17T04:42:54.739Z,16.71
2018-07-17T04:45:58.958Z,16.84
2018-07-17T04:49:03.272Z,16.98
2018-07-17T04:52:07.489Z,17.11
2018-07-17T04:55:11.689Z,17.22
2018-07-17T04:58:15.869Z,17.30
2018-07-17T05:01:20.069Z,17.37
2018-07-17T05:04:24.256Z,17.42
2018-07-17T05:07:28.533Z,17.50
2018-07-17T05:10:32.731Z,17.65
2018-07-17T05:13:36.945Z,17.80
2018-07-17T05:16:41.151Z,17.97
2018-07-17T05:19:45.124Z,18.10
2018-07-17T05:22:49.376Z,18.25
2018-07-17T05:25:53.538Z,18.46
2018-07-17T05:28:57.761Z,18.72
2018-07-17T05:32:01.945Z,18.83
2018-07-17T05:35:06.299Z,18.95
2018-07-17T05:38:10.493Z,19.08
2018-07-17T05:41:14.707Z,19.25
2018-07-17T05:44:18.928Z,19.41
2018-07-17T05:47:23.159Z,19.57
2018-07-17T05:50:27.376Z,19.75
2018-07-17T05:53:31.583Z,19.92
2018-07-17T05:56:35.777Z,20.09
2018-07-17T05:59:40.017Z,20.22
2018-07-17T06:02:44.224Z,20.43
2018-07-17T06:05:48.461Z,20.64
2018-07-17T06:08:52.681Z,20.78
2018-07-17T06:11:56.909Z,20.91
2018-07-17T06:15:01.407Z,21.03
2018-07-17T06:18:05.653Z,21.18
2018-07-17T06:21:09.915Z,21.33
2018-07-17T06:24:13.902Z,21.52
2018-07-17T06:27:18.165Z,21.67
2018-07-17T06:30:22.369Z,21.82
2018-07-17T06:33:26.597Z,21.95
2018-07-17T06:36:30.817Z,22.10
2018-07-17T06:39:35.025Z,22.28
2018-07-17T06:42:39.248Z,22.41
2018-07-17T06:45:43.501Z,22.55
2018-07-17T06:48:47.727Z,22.70
2018-07-17T06:51:51.933Z,22.88
2018-07-17T06:54:56.164Z,23.11
2018-07-17T06:58:00.389Z,23.24
2018-07-17T07:01:04.605Z,23.40
2018-07-17T07:04:08.836Z,23.58
2018-07-17T07:07:13.092Z,23.78
2018-07-17T07:10:17.337Z,23.92
2018-07-17T07:13:21.553Z,24.06
2018-07-17T07:16:25.773Z,24.20
2018-07-17T07:19:29.967Z,24.24
2018-07-17T07:22:34.224Z,24.39
2018-07-17T07:25:38.472Z,24.52
2018-07-17T07:28:42.700Z,24.66
2018-07-17T07:31:46.922Z,24.80
2018-07-17T07:34:51.148Z,24.93
2018-07-17T07:37:55.394Z,25.04
2018-07-17T07:40:59.624Z,25.21
2018-07-17T07:44:04.252Z,25.32
2018-07-17T07:47:08.509Z,25.42
2018-07-17T07:50:12.749Z,25.54
2018-07-17T07:53:16.976Z,25.69
2018-07-17T07:56:21.205Z,25.82
2018-07-17T07:59:25.417Z,25.95
2018-07-17T08:02:29.665Z,26.02
2018-07-17T08:05:33.862Z,26.16
2018-07-17T08:08:38.064Z,26.34
2018-07-17T08:11:42.333Z,26.43
2018-07-17T08:14:46.518Z,26.57
2018-07-17T08:17:50.745Z,26.70
2018-07-17T08:20:54.970Z,26.76
2018-07-17T08:23:59.205Z,26.87
2018-07-17T08:27:03.421Z,27.02
2018-07-17T08:30:07.625Z,27.00
2018-07-17T08:33:11.873Z,27.03
2018-07-17T08:36:16.077Z,27.13
2018-07-17T08:39:20.323Z,27.21
2018-07-17T08:42:24.549Z,27.34
2018-07-17T08:45:28.800Z,27.45
2018-07-17T08:48:33.028Z,27.59
2018-07-17T08:51:37.245Z,27.65
2018-07-17T08:54:41.569Z,27.67
2018-07-17T08:57:45.656Z,27.64
2018-07-17T09:00:49.937Z,27.60
2018-07-17T09:03:54.130Z,27.74
2018-07-17T09:06:58.321Z,27.75
2018-07-17T09:10:02.562Z,27.82
2018-07-17T09:13:06.801Z,27.97
2018-07-17T09:16:10.992Z,28.17
2018-07-17T09:19:15.242Z,28.31
2018-07-17T09:22:19.441Z,28.38
2018-07-17T09:25:23.678Z,28.43
2018-07-17T09:28:27.885Z,28.51
2018-07-17T09:31:32.117Z,28.54
2018-07-17T09:34:36.326Z,28.52
2018-07-17T09:37:40.521Z,28.57
2018-07-17T09:40:44.720Z,28.67
2018-07-17T09:43:48.959Z,28.72
2018-07-17T09:46:53.184Z,28.71
2018-07-17T09:49:57.408Z,28.84
2018-07-17T09:53:01.606Z,28.96
2018-07-17T09:56:05.918Z,28.88
2018-07-17T09:59:10.097Z,28.84
2018-07-17T10:02:19.687Z,28.89
2018-07-17T10:05:23.884Z,28.93
2018-07-17T10:08:28.105Z,28.99
2018-07-17T10:11:32.311Z,29.05
2018-07-17T10:14:37.766Z,29.12
2018-07-17T10:17:41.963Z,29.08
2018-07-17T10:20:46.225Z,29.10
2018-07-17T10:23:50.449Z,29.24
2018-07-17T10:26:54.680Z,29.35
2018-07-17T10:29:58.900Z,29.30
2018-07-17T10:33:03.121Z,29.34
2018-07-17T10:36:07.441Z,29.46
2018-07-17T10:39:12.040Z,29.56
2018-07-17T10:42:16.257Z,29.73
2018-07-17T10:45:20.477Z,29.66
2018-07-17T10:48:24.680Z,29.71
2018-07-17T10:51:28.921Z,29.59
2018-07-17T10:54:33.144Z,29.39
2018-07-17T10:57:37.381Z,29.24
2018-07-17T11:00:41.630Z,29.21
2018-07-17T11:03:45.868Z,29.32
2018-07-17T11:06:50.133Z,29.52
2018-07-17T11:09:54.374Z,29.63
2018-07-17T11:12:58.685Z,29.64
2018-07-17T11:16:02.793Z,29.52
2018-07-17T11:19:07.167Z,29.30
2018-07-17T11:22:11.388Z,29.20
2018-07-17T11:25:15.608Z,29.41
2018-07-17T11:28:19.813Z,29.69
2018-07-17T11:31:24.032Z,29.76
2018-07-17T11:34:28.236Z,29.83
2018-07-17T11:37:32.468Z,29.83
2018-07-17T11:40:36.684Z,29.91
2018-07-17T11:43:41.064Z,30.03
2018-07-17T11:46:45.329Z,30.22
2018-07-17T11:49:49.557Z,30.35
2018-07-17T11:52:53.821Z,30.36
2018-07-17T11:55:58.053Z,30.46
2018-07-17T11:59:02.455Z,30.47
2018-07-17T12:02:06.726Z,30.44
2018-07-17T12:05:10.989Z,30.33
2018-07-17T12:08:15.187Z,30.27
2018-07-17T12:11:19.460Z,30.31
2018-07-17T12:14:23.837Z,30.45
2018-07-17T12:17:28.105Z,30.68
2018-07-17T12:20:32.481Z,30.70
2018-07-17T12:23:36.561Z,30.56
2018-07-17T12:26:40.789Z,30.32
2018-07-17T12:29:44.993Z,30.17
2018-07-17T12:32:49.184Z,30.16
2018-07-17T12:35:53.392Z,30.24
2018-07-17T12:38:57.611Z,30.01
2018-07-17T12:42:01.841Z,29.96
2018-07-17T12:45:06.086Z,30.03
2018-07-17T12:48:13.084Z,30.17
2018-07-17T12:51:17.308Z,30.31
2018-07-17T12:54:21.505Z,30.55
2018-07-17T12:57:25.757Z,30.57
2018-07-17T13:00:29.968Z,30.37
2018-07-17T13:03:34.465Z,30.30
2018-07-17T13:06:38.876Z,30.32
2018-07-17T13:09:43.212Z,30.34
2018-07-17T13:12:47.445Z,30.36
2018-07-17T13:15:51.677Z,30.57
2018-07-17T13:18:55.913Z,30.77
2018-07-17T13:22:00.137Z,30.87
2018-07-17T13:25:04.902Z,30.99
2018-07-17T13:28:09.144Z,30.88
2018-07-17T13:31:13.446Z,30.90
2018-07-17T13:34:17.653Z,30.98
2018-07-17T13:37:21.877Z,30.99
2018-07-17T13:40:26.099Z,30.98
2018-07-17T13:43:30.340Z,31.05
2018-07-17T13:46:34.550Z,31.02
2018-07-17T13:49:38.771Z,31.02
2018-07-17T13:52:43.013Z,31.08
2018-07-17T13:55:47.249Z,31.05
2018-07-17T13:58:51.599Z,30.95
2018-07-17T14:01:55.854Z,31.00
2018-07-17T14:05:00.069Z,30.85
2018-07-17T14:08:04.300Z,30.72
2018-07-17T14:11:08.562Z,30.85
2018-07-17T14:14:12.769Z,31.00
2018-07-17T14:17:16.763Z,31.11
2018-07-17T14:20:21.030Z,31.07
2018-07-17T14:23:25.244Z,31.02
2018-07-17T14:26:29.458Z,30.96
2018-07-17T14:29:33.656Z,31.10
2018-07-17T14:32:37.859Z,31.07
2018-07-17T14:35:42.120Z,30.96
2018-07-17T14:38:46.330Z,30.93
2018-07-17T14:41:50.602Z,30.92
2018-07-17T14:44:54.830Z,31.01
2018-07-17T14:47:59.059Z,31.24
2018-07-17T14:51:03.089Z,31.59
2018-07-17T14:54:07.325Z,31.61
2018-07-17T14:57:11.575Z,31.41
2018-07-17T15:00:16.248Z,31.04
2018-07-17T15:03:20.494Z,31.10
2018-07-17T15:06:24.694Z,31.30
2018-07-17T15:09:28.912Z,31.28
2018-07-17T15:12:33.126Z,31.25
2018-07-17T15:15:37.393Z,31.49
2018-07-17T15:18:41.560Z,31.75
2018-07-17T15:21:45.781Z,31.80
2018-07-17T15:24:50.013Z,31.83
2018-07-17T15:27:54.507Z,31.87
2018-07-17T15:30:58.807Z,31.79
2018-07-17T15:34:03.114Z,31.71
2018-07-17T15:37:07.337Z,31.94
2018-07-17T15:40:11.562Z,32.13
2018-07-17T15:43:15.788Z,32.19
2018-07-17T15:46:20.027Z,32.52
2018-07-17T15:49:24.229Z,32.35
2018-07-17T15:52:28.482Z,32.17
2018-07-17T15:55:32.693Z,32.10
2018-07-17T15:58:36.938Z,31.93
2018-07-17T16:01:41.176Z,32.01
2018-07-17T16:04:45.405Z,32.18
2018-07-17T16:07:50.905Z,32.16
2018-07-17T16:10:55.120Z,32.04
2018-07-17T16:13:59.645Z,31.87
2018-07-17T16:17:03.581Z,31.76
2018-07-17T16:20:08.322Z,31.71
2018-07-17T16:23:12.564Z,31.54
2018-07-17T16:26:16.822Z,31.33
2018-07-17T16:29:21.676Z,31.04
2018-07-17T16:32:25.924Z,30.78
2018-07-17T16:35:30.645Z,30.61
2018-07-17T16:38:34.875Z,30.39
2018-07-17T16:41:39.104Z,30.23
2018-07-17T16:44:43.404Z,30.06
2018-07-17T16:47:47.664Z,29.91
2018-07-17T16:50:52.021Z,29.75
2018-07-17T16:53:57.047Z,29.60
2018-07-17T16:57:01.283Z,29.48
2018-07-17T17:00:05.817Z,29.37
2018-07-17T17:03:10.248Z,29.32
2018-07-17T17:06:14.480Z,29.22
2018-07-17T17:09:18.794Z,29.17
2018-07-17T17:12:23.012Z,29.06
2018-07-17T17:15:27.259Z,29.03
2018-07-17T17:18:31.461Z,29.00
2018-07-17T17:21:35.696Z,28.89
2018-07-17T17:24:39.961Z,28.81
2018-07-17T17:27:44.162Z,28.81
2018-07-17T17:30:48.361Z,28.76
2018-07-17T17:33:52.565Z,28.70
2018-07-17T17:36:56.791Z,28.57
2018-07-17T17:40:00.997Z,28.44
2018-07-17T17:43:05.548Z,28.36
2018-07-17T17:46:09.781Z,28.28
2018-07-17T17:49:14.010Z,28.14
2018-07-17T17:52:18.238Z,28.08
2018-07-17T17:55:22.445Z,27.98
2018-07-17T17:58:26.641Z,27.94
2018-07-17T18:01:30.881Z,27.81
2018-07-17T18:04:35.089Z,27.73
2018-07-17T18:07:39.326Z,27.62
2018-07-17T18:10:43.552Z,27.56
2018-07-17T18:13:47.760Z,27.46
2018-07-17T18:16:51.969Z,27.39
2018-07-17T18:19:56.170Z,27.33
2018-07-17T18:23:00.389Z,27.26
2018-07-17T18:26:04.577Z,27.20
2018-07-17T18:29:08.822Z,27.18
2018-07-17T18:32:13.373Z,27.13
2018-07-17T18:35:17.565Z,27.01
2018-07-17T18:38:21.800Z,26.89
2018-07-17T18:41:26.015Z,26.76
2018-07-17T18:44:30.268Z,26.68
2018-07-17T18:47:34.513Z,26.58
2018-07-17T18:50:38.753Z,26.46
2018-07-17T18:53:43.010Z,26.35
2018-07-17T18:56:47.247Z,26.27
2018-07-17T18:59:51.461Z,26.12
2018-07-17T19:02:55.473Z,25.98
2018-07-17T19:05:59.499Z,25.97
2018-07-17T19:09:04.069Z,25.83
2018-07-17T19:12:08.274Z,25.66
2018-07-17T19:15:12.481Z,25.39
2018-07-17T19:18:16.767Z,25.08
2018-07-17T19:21:20.982Z,24.84
2018-07-17T19:24:25.236Z,24.64
2018-07-17T19:27:29.380Z,24.43
2018-07-17T19:30:33.633Z,24.26
2018-07-17T19:33:37.861Z,24.10
2018-07-17T19:36:42.107Z,23.93
2018-07-17T19:39:46.329Z,23.77
2018-07-17T19:42:50.541Z,23.64
2018-07-17T19:45:54.764Z,23.58
2018-07-17T19:48:59.072Z,23.42
2018-07-17T19:52:03.293Z,23.31
2018-07-17T19:55:07.565Z,23.16
2018-07-17T19:58:11.772Z,23.05
2018-07-17T20:01:15.981Z,22.97
2018-07-17T20:04:20.191Z,22.87
2018-07-17T20:07:24.400Z,22.80
2018-07-17T20:10:28.605Z,22.70
2018-07-17T20:13:32.830Z,22.58
2018-07-17T20:16:37.036Z,22.48
2018-07-17T20:19:41.333Z,22.34
2018-07-17T20:22:45.529Z,22.28
2018-07-17T20:25:49.736Z,22.18
2018-07-17T20:28:53.929Z,22.09
2018-07-17T20:31:58.161Z,22.01
2018-07-17T20:35:02.364Z,21.96
2018-07-17T20:38:06.564Z,21.89
2018-07-17T20:41:10.839Z,21.79
2018-07-17T20:44:15.014Z,21.64
2018-07-17T20:47:19.224Z,21.60
2018-07-17T20:50:23.468Z,21.52
2018-07-17T20:53:27.672Z,21.43
2018-07-17T20:56:31.886Z,21.36
2018-07-17T20:59:36.089Z,21.31
2018-07-17T21:02:40.292Z,21.23
2018-07-17T21:05:44.500Z,21.19
2018-07-17T21:08:48.490Z,21.14
2018-07-17T21:11:52.709Z,21.11
2018-07-17T21:14:56.938Z,21.05
2018-07-17T21:18:00.926Z,21.00
2018-07-17T21:21:05.132Z,20.91
2018-07-17T21:24:09.345Z,20.76
2018-07-17T21:27:13.578Z,20.61
2018-07-17T21:30:17.837Z,20.57
2018-07-17T21:33:22.053Z,20.52
2018-07-17T21:36:26.298Z,20.40
2018-07-17T21:39:30.517Z,20.25
2018-07-17T21:42:34.733Z,20.18
2018-07-17T21:45:38.937Z,20.12
2018-07-17T21:48:43.189Z,20.08
2018-07-17T21:51:47.405Z,20.04
2018-07-17T21:54:51.620Z,19.95
2018-07-17T21:57:55.840Z,19.90
2018-07-17T22:01:00.050Z,19.90
2018-07-17T22:04:04.326Z,19.89
2018-07-17T22:07:08.532Z,19.87
2018-07-17T22:10:12.777Z,19.81
2018-07-17T22:13:16.986Z,19.77
2018-07-17T22:16:21.277Z,19.74
2018-07-17T22:19:25.520Z,19.72
2018-07-17T22:22:29.763Z,19.68
2018-07-17T22:25:34.025Z,19.63
2018-07-17T22:28:38.254Z,19.62
2018-07-17T22:31:42.472Z,19.61
2018-07-17T22:34:46.488Z,19.57
2018-07-17T22:37:50.741Z,19.49
2018-07-17T22:40:54.993Z,19.41
2018-07-17T22:43:59.235Z,19.28
2018-07-17T22:47:03.472Z,19.27
2018-07-17T22:50:07.751Z,19.24
2018-07-17T22:53:12.008Z,19.20
2018-07-17T22:56:16.261Z,19.22
2018-07-17T22:59:20.493Z,19.12
2018-07-17T23:02:24.742Z,19.03
2018-07-17T23:05:28.969Z,18.98
2018-07-17T23:08:33.237Z,18.96
2018-07-17T23:11:38.064Z,18.95
2018-07-17T23:14:42.357Z,18.93
2018-07-17T23:17:46.570Z,18.93
2018-07-17T23:20:50.804Z,18.89
2018-07-17T23:23:55.777Z,18.88
2018-07-17T23:27:00.015Z,18.89
2018-07-17T23:30:04.229Z,18.89
2018-07-17T23:33:08.444Z,18.91
2018-07-17T23:36:12.620Z,18.90
2018-07-17T23:39:16.841Z,18.84
2018-07-17T23:42:21.020Z,18.82
2018-07-17T23:45:25.233Z,18.90
2018-07-17T23:48:29.411Z,18.91
2018-07-17T23:51:33.617Z,18.91
2018-07-17T23:54:37.847Z,18.92
2018-07-17T23:57:42.050Z,18.93
